Time;durP1;ratioP1;P1;durP2;ratioP2;P2;SDS_P1;SDS_P2;PMS_P1;PMS_P2;Temp;Humidity;BMP_temperature;BMP_pressure;BME280_temperature;BME280_humidity;BME280_pressure;Samples;Min_cycle;Max_cycle;Signal;HPM_P1;HPM_P2
2024/04/17 00:02:26;;;;;;;;;;;8.30;99.90;;;8.81;69.43;99810.75;5518443;26;19942;-84
2024/04/17 00:04:55;;;;;;;;;;;8.30;99.90;;;8.80;69.25;99806.47;5494719;26;19934;-84
2024/04/17 00:07:24;;;;;;;;;;;8.30;99.90;;;8.76;69.03;99814.88;5495019;26;19932;-83
2024/04/17 00:09:50;;;;;;;;;;;8.30;99.90;;;8.76;68.95;99809.56;5530563;26;20287;-83
2024/04/17 00:12:19;;;;;;;;;;;8.30;99.90;;;8.76;69.06;99814.88;5529572;26;19934;-83
2024/04/17 00:14:51;;;;;;;;;;;8.30;99.90;;;8.73;69.13;99801.19;5532309;25;19959;-83
2024/04/17 00:17:20;;;;;;;;;;;8.30;99.90;;;8.71;68.75;99804.06;5531319;26;19934;-83
2024/04/17 00:19:46;;;;;;;;;;;8.20;99.90;;;8.68;69.05;99806.34;5531927;26;19935;-83
2024/04/17 00:22:17;;;;;;;;;;;8.20;99.90;;;8.67;68.85;99812.69;5532598;25;19934;-84
2024/04/17 00:24:43;;;;;;;;;;;8.20;99.90;;;8.63;68.60;99808.84;5531273;25;19931;-83
2024/04/17 00:27:12;;;;;;;;;;;8.10;99.90;;;8.62;68.74;99807.22;5531199;26;19947;-83
2024/04/17 00:29:38;;;;;;;;;;;8.10;99.90;;;8.62;68.82;99810.69;5529689;26;19931;-83
2024/04/17 00:32:08;;;;;;;;;;;8.10;99.90;;;8.61;68.86;99811.72;5531289;26;19934;-84
2024/04/17 00:34:34;;;;;;;;;;;8.10;99.90;;;8.58;68.18;99816.63;5530164;26;20000;-83
2024/04/17 00:37:03;;;;;;;;;;;8.10;99.90;;;8.54;68.66;99810.97;5531121;25;19935;-83
2024/04/17 00:39:32;;;;;;;;;;;8.00;99.90;;;8.53;68.54;99819.94;5527811;26;19928;-83
2024/04/17 00:42:00;;;;;;;;;;;8.00;99.90;;;8.50;68.24;99818.53;5529074;26;19928;-83
2024/04/17 00:44:27;;;;;;;;;;;8.00;99.90;;;8.50;68.87;99820.38;5531074;26;19935;-84
2024/04/17 00:46:56;;;;;;;;;;;8.00;99.90;;;8.48;68.41;99817.91;5532071;25;19935;-84
2024/04/17 00:49:22;;;;;;;;;;;8.00;99.90;;;8.45;68.76;99828.19;5531364;26;19928;-84
2024/04/17 00:51:52;;;;;;;;;;;7.90;99.90;;;8.43;68.62;99820.41;5525213;26;20018;-83
2024/04/17 00:54:19;;;;;;;;;;;7.90;99.90;;;8.42;68.55;99818.78;5502497;26;19928;-83
2024/04/17 00:56:50;;;;;;;;;;;7.90;99.90;;;8.41;68.76;99817.16;5527511;26;19927;-84
2024/04/17 00:59:16;;;;;;;;;;;7.90;99.90;;;8.39;68.34;99821.84;5528211;25;20375;-83
2024/04/17 01:01:45;;;;;;;;;;;7.90;99.90;;;8.37;68.60;99820.44;5530896;25;19934;-83
2024/04/17 01:04:11;;;;;;;;;;;7.80;99.90;;;8.37;68.49;99813.28;5529375;26;20378;-83
2024/04/17 01:06:40;;;;;;;;;;;7.80;99.90;;;8.38;68.40;99814.09;5531308;25;19942;-83
2024/04/17 01:09:06;;;;;;;;;;;7.80;99.90;;;8.37;68.29;99820.44;5531078;25;19927;-83
2024/04/17 01:11:40;;;;;;;;;;;7.80;99.90;;;8.34;68.12;99811.00;5530852;26;19956;-83
2024/04/17 01:14:09;;;;;;;;;;;7.80;99.90;;;8.35;68.08;99817.16;5531144;26;19928;-83
2024/04/17 01:16:38;;;;;;;;;;;7.80;99.90;;;8.35;68.24;99817.16;5497192;26;19927;-83
2024/04/17 01:19:05;;;;;;;;;;;7.80;99.90;;;8.33;68.32;99820.00;5493796;26;19973;-83
2024/04/17 01:21:33;;;;;;;;;;;7.80;99.90;;;8.31;67.98;99816.78;5493901;26;19997;-84
2024/04/17 01:24:02;;;;;;;;;;;7.80;99.90;;;8.25;68.24;99813.13;5493491;26;19928;-84
2024/04/17 01:26:31;;;;;;;;;;;7.70;99.90;;;8.23;68.52;99817.81;5493767;26;19946;-84
2024/04/17 01:28:57;;;;;;;;;;;7.70;99.90;;;8.21;68.11;99803.94;5493546;26;20004;-83
2024/04/17 01:31:26;;;;;;;;;;;7.70;99.90;;;8.20;68.20;99807.63;5502415;26;19934;-83
2024/04/17 01:33:52;;;;;;;;;;;7.70;99.90;;;8.18;68.28;99807.00;5529140;26;20270;-83
2024/04/17 01:36:21;;;;;;;;;;;7.60;99.90;;;8.18;68.22;99800.88;5529175;26;19963;-83
2024/04/17 01:38:47;;;;;;;;;;;7.60;99.90;;;8.18;68.16;99799.03;5529391;26;19934;-83
2024/04/17 01:41:18;;;;;;;;;;;7.70;99.90;;;8.16;68.29;99806.41;5528617;26;19935;-83
2024/04/17 01:43:44;;;;;;;;;;;7.60;99.90;;;8.15;67.92;99807.47;5529504;26;20275;-83
2024/04/17 01:46:13;;;;;;;;;;;7.60;99.90;;;8.14;68.34;99805.81;5529440;25;19955;-83
2024/04/17 01:48:39;;;;;;;;;;;7.60;99.90;;;8.11;67.98;99811.56;5509339;26;19931;-83
2024/04/17 01:51:08;;;;;;;;;;;7.60;99.90;;;8.09;67.64;99805.63;5493991;26;19939;-83
2024/04/17 01:53:34;;;;;;;;;;;7.50;99.90;;;8.04;68.25;99813.41;5496658;26;19928;-83
2024/04/17 01:56:03;;;;;;;;;;;7.50;99.90;;;8.06;68.28;99814.03;5496465;26;19936;-83
2024/04/17 01:58:32;;;;;;;;;;;7.50;99.90;;;8.03;67.81;99811.78;5496856;26;19928;-84
2024/04/17 02:01:06;;;;;;;;;;;7.50;99.90;;;8.02;68.14;99814.66;5496114;26;19928;-83
2024/04/17 02:03:33;;;;;;;;;;;7.50;99.90;;;8.02;67.53;99818.13;5496437;26;19928;-83
2024/04/17 02:06:02;;;;;;;;;;;7.50;99.90;;;7.99;67.85;99815.88;5520945;26;19963;-83
2024/04/17 02:08:28;;;;;;;;;;;7.40;99.90;;;7.99;67.44;99821.19;5533382;25;19934;-83
2024/04/17 02:10:57;;;;;;;;;;;7.40;99.90;;;7.98;67.79;99807.09;5531677;25;20374;-83
2024/04/17 02:13:23;;;;;;;;;;;7.40;99.90;;;7.95;67.68;99812.00;5529856;26;19938;-83
2024/04/17 02:15:54;;;;;;;;;;;7.40;99.90;;;7.92;67.81;99815.09;5531551;25;19971;-83
2024/04/17 02:18:21;;;;;;;;;;;7.40;99.90;;;7.90;67.47;99819.78;5531757;26;20374;-84
2024/04/17 02:20:50;;;;;;;;;;;7.40;99.90;;;7.91;67.39;99821.44;5530921;26;19936;-83
2024/04/17 02:23:16;;;;;;;;;;;7.30;99.90;;;7.87;67.87;99815.72;5528570;26;19934;-83
2024/04/17 02:25:45;;;;;;;;;;;7.30;99.90;;;7.88;67.80;99821.84;5531029;26;19955;-83
2024/04/17 02:28:11;;;;;;;;;;;7.30;99.90;;;7.87;67.59;99831.66;5531138;25;19935;-83
2024/04/17 02:30:39;;;;;;;;;;;7.30;99.90;;;7.86;67.83;99827.38;5531076;25;19934;-83
2024/04/17 02:33:08;;;;;;;;;;;7.30;99.90;;;7.86;67.65;99826.56;5531490;25;19934;-84
2024/04/17 02:35:38;;;;;;;;;;;7.30;99.90;;;7.83;67.43;99825.13;5531209;26;19972;-83
2024/04/17 02:38:04;;;;;;;;;;;7.30;99.90;;;7.82;67.63;99828.00;5527168;26;19933;-83
2024/04/17 02:40:33;;;;;;;;;;;7.20;99.90;;;7.81;67.37;99826.34;5495827;26;19932;-83
2024/04/17 02:42:59;;;;;;;;;;;7.30;99.90;;;7.79;67.54;99828.41;5493946;26;20374;-83
2024/04/17 02:45:28;;;;;;;;;;;7.20;99.90;;;7.78;67.33;99826.78;5494320;26;19956;-83
2024/04/17 02:47:54;;;;;;;;;;;7.20;99.90;;;7.77;67.25;99827.81;5494671;26;19938;-83
2024/04/17 02:50:26;;;;;;;;;;;7.20;99.90;;;7.74;67.04;99831.69;5497393;26;19977;-83
2024/04/17 02:52:52;;;;;;;;;;;7.20;99.90;;;7.71;67.41;99832.94;5494085;26;19928;-84
2024/04/17 02:55:21;;;;;;;;;;;7.20;99.90;;;7.72;66.92;99831.09;5493790;26;19934;-83
2024/04/17 02:57:47;;;;;;;;;;;7.10;99.90;;;7.68;66.58;99833.34;5495953;26;19927;-83
2024/04/17 03:00:17;;;;;;;;;;;7.10;99.90;;;7.66;66.81;99826.59;5531260;26;19927;-84
2024/04/17 03:02:43;;;;;;;;;;;7.10;99.90;;;7.65;66.51;99832.94;5531650;26;19934;-83
2024/04/17 03:05:12;;;;;;;;;;;7.10;99.90;;;7.60;66.79;99825.59;5532073;26;19927;-83
2024/04/17 03:07:44;;;;;;;;;;;7.10;99.90;;;7.60;66.61;99838.03;5533068;26;19928;-83
2024/04/17 03:10:13;;;;;;;;;;;7.00;99.90;;;7.59;66.41;99833.78;5532895;26;19927;-84
2024/04/17 03:12:39;;;;;;;;;;;7.00;99.90;;;7.56;66.35;99832.34;5532336;26;19934;-84
2024/04/17 03:15:12;;;;;;;;;;;7.00;99.90;;;7.56;66.33;99834.16;5532242;25;19932;-84
2024/04/17 03:17:39;;;;;;;;;;;7.00;99.90;;;7.54;66.45;99836.22;5533080;26;19927;-83
2024/04/17 03:20:08;;;;;;;;;;;6.90;99.90;;;7.53;66.48;99839.91;5532247;25;19934;-83
2024/04/17 03:22:34;;;;;;;;;;;6.90;99.90;;;7.48;66.32;99845.84;5504355;25;20375;-83
2024/04/17 03:25:06;;;;;;;;;;;7.10;99.90;;;7.50;66.17;99843.78;5495135;26;19960;-83
2024/04/17 03:27:32;;;;;;;;;;;6.90;99.90;;;7.48;66.33;99844.00;5495914;26;19927;-83
2024/04/17 03:30:01;;;;;;;;;;;6.90;99.90;;;7.44;66.20;99847.25;5495670;26;19939;-83
2024/04/17 03:32:27;;;;;;;;;;;6.80;99.90;;;7.43;66.41;99845.63;5495603;26;19937;-83
2024/04/17 03:34:56;;;;;;;;;;;6.80;99.90;;;7.42;66.21;99852.78;5495057;26;19936;-83
2024/04/17 03:37:24;;;;;;;;;;;6.80;99.90;;;7.39;66.12;99842.56;5495538;26;19936;-83
2024/04/17 03:39:53;;;;;;;;;;;6.80;99.90;;;7.39;66.15;99849.72;5495316;26;19928;-84
2024/04/17 03:42:24;;;;;;;;;;;6.80;99.90;;;7.35;66.26;99849.31;5495335;26;20020;-83
2024/04/17 03:44:53;;;;;;;;;;;6.70;99.90;;;7.34;66.57;99855.63;5494769;26;19932;-83
2024/04/17 03:47:22;;;;;;;;;;;6.70;99.90;;;7.33;66.47;99851.34;5511857;26;19927;-83
2024/04/17 03:49:51;;;;;;;;;;;6.70;99.90;;;7.34;66.39;99857.47;5531464;25;19937;-84
2024/04/17 03:52:17;;;;;;;;;;;6.70;99.90;;;7.34;66.44;99855.63;5531912;25;20021;-83
2024/04/17 03:54:46;;;;;;;;;;;6.70;99.90;;;7.34;66.50;99860.13;5531305;26;19959;-84
2024/04/17 03:57:12;;;;;;;;;;;6.70;99.90;;;7.33;66.80;99855.84;5532099;25;19927;-84
2024/04/17 03:59:44;;;;;;;;;;;6.70;99.90;;;7.34;66.46;99860.13;5531530;25;19940;-85
2024/04/17 04:02:10;;;;;;;;;;;6.70;99.90;;;7.30;66.72;99854.41;5531045;25;19928;-84
2024/04/17 04:04:39;;;;;;;;;;;6.70;99.90;;;7.27;67.47;99861.94;5531789;25;19934;-84
2024/04/17 04:07:05;;;;;;;;;;;6.70;99.90;;;7.23;67.12;99853.63;5530941;25;19934;-84
2024/04/17 04:09:34;;;;;;;;;;;6.60;99.90;;;7.23;67.19;99851.78;5530908;26;19935;-84
2024/04/17 04:12:02;;;;;;;;;;;6.70;99.90;;;7.26;66.94;99853.19;5530299;26;21484;-83
2024/04/17 04:14:31;;;;;;;;;;;6.70;99.90;;;7.20;66.96;99846.88;5529321;25;19943;-83
2024/04/17 04:17:00;;;;;;;;;;;6.60;99.90;;;7.19;67.13;99852.38;5529401;26;19927;-84
2024/04/17 04:19:28;;;;;;;;;;;6.60;99.90;;;7.16;67.50;99858.91;5530304;26;19927;-84
2024/04/17 04:21:54;;;;;;;;;;;6.60;99.90;;;7.18;67.15;99850.75;5529027;26;19928;-87
2024/04/17 04:24:23;;;;;;;;;;;6.60;99.90;;;7.16;67.01;99850.94;5530375;25;19939;-87
2024/04/17 04:26:49;;;;;;;;;;;6.60;99.90;;;7.15;67.02;99846.66;5529549;25;19934;-87
2024/04/17 04:29:18;;;;;;;;;;;6.60;99.90;;;7.16;67.06;99856.25;5528364;25;19995;-87
2024/04/17 04:31:44;;;;;;;;;;;6.60;99.90;;;7.17;66.91;99860.56;5529311;26;20370;-84
2024/04/17 04:34:16;;;;;;;;;;;6.60;99.90;;;7.16;67.07;99850.94;5517124;26;19928;-85
2024/04/17 04:36:42;;;;;;;;;;;6.60;99.90;;;7.13;67.37;99856.66;5494497;26;19955;-85
2024/04/17 04:39:10;;;;;;;;;;;6.60;99.90;;;7.13;67.09;99858.50;5493367;26;20382;-85
2024/04/17 04:41:37;;;;;;;;;;;6.60;99.90;;;7.11;67.18;99856.03;5493064;26;19928;-83
2024/04/17 04:44:06;;;;;;;;;;;6.60;99.90;;;7.12;67.17;99860.31;5492542;26;19943;-84
2024/04/17 04:46:32;;;;;;;;;;;6.60;99.90;;;7.11;67.01;99860.53;5493967;26;20263;-85
2024/04/17 04:49:01;;;;;;;;;;;6.60;99.90;;;7.10;66.97;99862.38;5491045;26;19934;-87
2024/04/17 04:51:30;;;;;;;;;;;6.50;99.90;;;7.10;66.78;99870.31;5492500;26;19932;-84
2024/04/17 04:53:59;;;;;;;;;;;6.50;99.90;;;7.12;66.70;99868.28;5503168;26;20273;-84
2024/04/17 04:56:25;;;;;;;;;;;6.60;99.90;;;7.11;66.90;99864.00;5531864;26;20299;-84
2024/04/17 04:58:54;;;;;;;;;;;6.50;99.90;;;7.12;66.97;99872.75;5520306;26;19928;-84
2024/04/17 05:01:20;;;;;;;;;;;6.60;99.90;;;7.16;67.18;99869.50;5502998;26;20278;-84
2024/04/17 05:03:49;;;;;;;;;;;6.70;99.90;;;7.20;67.18;99873.38;5498589;26;19939;-84
2024/04/17 05:06:15;;;;;;;;;;;6.70;99.90;;;7.22;68.03;99875.81;5495403;26;19927;-84
2024/04/17 05:08:46;;;;;;;;;;;6.70;99.90;;;7.25;68.09;99874.63;5497690;26;19977;-84
2024/04/17 05:11:13;;;;;;;;;;;6.70;99.90;;;7.23;68.29;99880.94;5497218;26;19935;-84
2024/04/17 05:13:41;;;;;;;;;;;6.80;99.90;;;7.21;69.10;99877.66;5497330;26;19996;-84
2024/04/17 05:16:07;;;;;;;;;;;6.80;99.90;;;7.26;69.05;99881.53;5497711;26;19938;-84
2024/04/17 05:18:37;;;;;;;;;;;6.80;99.90;;;7.26;69.04;99882.34;5496540;26;19974;-84
2024/04/17 05:21:03;;;;;;;;;;;6.80;99.90;;;7.23;69.30;99880.13;5499528;26;19928;-85
2024/04/17 05:23:32;;;;;;;;;;;6.80;99.90;;;7.26;69.51;99882.34;5531623;26;19995;-84
2024/04/17 05:26:00;;;;;;;;;;;6.90;99.90;;;7.28;69.35;99877.69;5533405;26;19928;-84
2024/04/17 05:28:29;;;;;;;;;;;6.90;99.90;;;7.32;69.37;99878.91;5537378;25;19995;-84
2024/04/17 05:30:56;;;;;;;;;;;6.90;99.90;;;7.38;69.68;99879.94;5537448;25;19927;-84
2024/04/17 05:33:25;;;;;;;;;;;7.00;99.90;;;7.41;69.94;99885.63;5537430;25;19967;-84
2024/04/17 05:35:51;;;;;;;;;;;7.00;99.90;;;7.42;70.31;99875.84;5538342;25;19932;-84
2024/04/17 05:38:20;;;;;;;;;;;7.00;99.90;;;7.47;70.39;99879.50;5533838;26;19934;-84
2024/04/17 05:40:47;;;;;;;;;;;7.20;99.90;;;7.53;70.59;99882.38;5536682;26;20378;-84
2024/04/17 05:43:20;;;;;;;;;;;7.30;99.90;;;7.64;70.61;99879.88;5536902;26;20339;-84
2024/04/17 05:45:46;;;;;;;;;;;7.40;99.90;;;7.74;70.79;99885.59;5537347;26;19935;-84
2024/04/17 05:48:14;;;;;;;;;;;7.50;99.90;;;7.81;71.27;99876.78;5537788;26;19960;-84
2024/04/17 05:50:41;;;;;;;;;;;7.60;99.90;;;7.83;71.55;99872.09;5536735;26;19972;-84
2024/04/17 05:53:10;;;;;;;;;;;7.60;99.90;;;7.84;72.05;99881.69;5538091;26;19940;-84
2024/04/17 05:55:38;;;;;;;;;;;7.60;99.90;;;7.85;72.11;99870.03;5537605;26;19927;-84
2024/04/17 05:58:07;;;;;;;;;;;7.60;99.90;;;7.85;72.17;99870.03;5536383;26;20008;-84
2024/04/17 06:00:36;;;;;;;;;;;7.60;99.90;;;7.86;72.62;99871.69;5536935;26;19973;-84
2024/04/17 06:03:05;;;;;;;;;;;7.60;99.90;;;7.89;72.95;99876.56;5537201;26;20004;-84
2024/04/17 06:05:31;;;;;;;;;;;7.60;99.90;;;7.85;72.81;99885.97;5537684;25;19934;-84
2024/04/17 06:08:00;;;;;;;;;;;7.60;99.90;;;7.81;73.49;99882.94;5536655;25;19927;-84
2024/04/17 06:10:26;;;;;;;;;;;7.60;99.90;;;7.85;73.50;99886.78;5536282;26;19927;-84
2024/04/17 06:12:55;;;;;;;;;;;7.60;99.90;;;7.94;74.12;99890.03;5535665;25;19996;-84
2024/04/17 06:15:21;;;;;;;;;;;7.70;99.90;;;7.98;74.19;99891.25;5536180;26;19927;-84
2024/04/17 06:17:55;;;;;;;;;;;7.70;99.90;;;8.00;74.33;99891.84;5536171;26;19938;-84
2024/04/17 06:20:22;;;;;;;;;;;7.80;99.90;;;8.02;74.06;99895.13;5536402;25;19927;-85
2024/04/17 06:22:50;;;;;;;;;;;7.80;99.90;;;8.01;74.03;99901.47;5536678;26;19955;-83
2024/04/17 06:25:16;;;;;;;;;;;7.80;99.90;;;7.94;73.62;99905.97;5537888;26;19927;-84
2024/04/17 06:27:45;;;;;;;;;;;7.70;99.90;;;7.94;73.74;99898.81;5536967;26;19927;-84
2024/04/17 06:30:11;;;;;;;;;;;7.70;99.90;;;7.93;73.48;99901.69;5536905;25;19939;-84
2024/04/17 06:32:41;;;;;;;;;;;7.70;99.90;;;7.94;73.58;99901.47;5537559;26;19948;-83
2024/04/17 06:35:10;;;;;;;;;;;7.70;99.90;;;7.87;73.53;99906.00;5535962;26;19952;-83
2024/04/17 06:37:38;;;;;;;;;;;7.70;99.90;;;7.83;73.82;99901.31;5536661;26;19928;-84
2024/04/17 06:40:05;;;;;;;;;;;7.60;99.90;;;7.85;73.84;99907.22;5536826;25;19935;-84
2024/04/17 06:42:34;;;;;;;;;;;7.60;99.90;;;7.86;73.81;99890.28;5537504;26;19931;-84
2024/04/17 06:45:01;;;;;;;;;;;7.60;99.90;;;7.87;73.96;99899.88;5536368;26;19927;-83
2024/04/17 06:47:30;;;;;;;;;;;7.60;99.90;;;7.86;73.84;99895.59;5534842;26;20370;-83
2024/04/17 06:49:57;;;;;;;;;;;7.60;99.90;;;7.79;73.60;99897.44;5535495;26;19980;-83
2024/04/17 06:52:29;;;;;;;;;;;7.50;99.90;;;7.78;74.31;99901.91;5534967;26;19943;-83
2024/04/17 06:54:55;;;;;;;;;;;7.50;99.90;;;7.84;73.97;99895.78;5537988;26;20027;-83
2024/04/17 06:57:24;;;;;;;;;;;7.60;99.90;;;7.84;74.02;99906.41;5534054;26;19928;-83
2024/04/17 06:59:50;;;;;;;;;;;7.60;99.90;;;7.86;74.52;99906.22;5536867;25;20378;-83
2024/04/17 07:02:19;;;;;;;;;;;7.60;99.90;;;7.87;74.74;99906.00;5535094;26;19927;-83
2024/04/17 07:04:45;;;;;;;;;;;7.60;99.90;;;7.88;74.33;99904.97;5536254;25;20370;-83
2024/04/17 07:07:14;;;;;;;;;;;7.60;99.90;;;7.86;74.30;99901.72;5534721;26;20331;-83
2024/04/17 07:09:43;;;;;;;;;;;7.60;99.90;;;7.85;74.76;99907.22;5536133;26;19931;-83
2024/04/17 07:12:13;;;;;;;;;;;7.60;99.90;;;7.81;73.81;99900.69;5534809;26;20367;-83
2024/04/17 07:14:39;;;;;;;;;;;7.50;99.90;;;7.82;74.36;99911.09;5534880;26;20431;-83
2024/04/17 07:17:08;;;;;;;;;;;7.60;99.90;;;7.87;74.63;99903.34;5534547;26;20035;-83
2024/04/17 07:19:35;;;;;;;;;;;7.60;99.90;;;7.91;74.08;99909.88;5534506;26;19935;-83
2024/04/17 07:22:03;;;;;;;;;;;7.60;99.90;;;7.91;74.04;99911.72;5533483;26;19927;-83
2024/04/17 07:24:30;;;;;;;;;;;7.60;99.90;;;7.91;74.10;99901.91;5533927;26;19928;-83
2024/04/17 07:27:02;;;;;;;;;;;7.60;99.90;;;7.92;74.41;99908.03;5536942;25;19927;-83
2024/04/17 07:29:28;;;;;;;;;;;7.60;99.90;;;7.91;73.97;99909.06;5534610;26;19935;-84
2024/04/17 07:31:57;;;;;;;;;;;7.60;99.90;;;7.85;73.95;99907.22;5534662;26;20379;-83
2024/04/17 07:34:23;;;;;;;;;;;7.60;99.90;;;7.78;73.55;99906.41;5534891;26;19934;-83
2024/04/17 07:36:52;;;;;;;;;;;7.50;99.90;;;7.79;73.96;99908.03;5536254;26;19963;-83
2024/04/17 07:39:18;;;;;;;;;;;7.50;99.90;;;7.80;74.70;99899.06;5535125;26;19927;-83
2024/04/17 07:41:47;;;;;;;;;;;7.60;99.90;;;7.83;74.38;99898.66;5536569;26;20442;-83
2024/04/17 07:44:16;;;;;;;;;;;7.60;99.90;;;7.86;74.83;99906.22;5534464;26;19935;-83
2024/04/17 07:46:45;;;;;;;;;;;7.60;99.90;;;7.91;75.16;99907.22;5536953;26;19934;-83
2024/04/17 07:49:11;;;;;;;;;;;7.70;99.90;;;7.93;75.02;99905.16;5536121;26;19927;-83
2024/04/17 07:51:40;;;;;;;;;;;7.70;99.90;;;7.98;74.72;99907.19;5538131;26;19927;-83
2024/04/17 07:54:06;;;;;;;;;;;7.70;99.90;;;8.00;74.64;99907.78;5534279;26;20387;-83
2024/04/17 07:56:35;;;;;;;;;;;7.80;99.90;;;8.00;74.50;99905.97;5534842;26;19996;-83
2024/04/17 07:59:04;;;;;;;;;;;7.80;99.90;;;8.01;74.25;99901.47;5534309;26;19928;-83
2024/04/17 08:01:33;;;;;;;;;;;7.80;99.90;;;8.03;74.69;99895.94;5535430;26;20020;-83
2024/04/17 08:04:02;;;;;;;;;;;7.90;99.90;;;8.07;74.39;99905.94;5538155;26;19930;-83
2024/04/17 08:06:28;;;;;;;;;;;7.80;99.90;;;8.04;74.06;99903.69;5534524;26;19931;-83
2024/04/17 08:08:57;;;;;;;;;;;7.80;99.90;;;8.07;74.72;99905.13;5537365;25;19927;-83
2024/04/17 08:11:23;;;;;;;;;;;7.80;99.90;;;8.11;74.70;99903.69;5534427;26;19927;-83
2024/04/17 08:13:52;;;;;;;;;;;7.80;99.90;;;8.00;74.35;99895.34;5535343;26;19996;-83
2024/04/17 08:16:18;;;;;;;;;;;7.80;99.90;;;8.05;75.16;99892.03;5534307;26;19928;-83
2024/04/17 08:18:49;;;;;;;;;;;7.80;99.90;;;8.09;75.16;99898.56;5535984;25;19927;-83
2024/04/17 08:21:16;;;;;;;;;;;7.90;99.90;;;8.10;74.93;99902.88;5533828;26;19967;-83
2024/04/17 08:23:45;;;;;;;;;;;7.90;99.90;;;8.11;74.94;99901.03;5533339;26;19928;-83
2024/04/17 08:26:11;;;;;;;;;;;7.90;99.90;;;8.08;74.07;99902.25;5534431;26;20011;-83
2024/04/17 08:28:40;;;;;;;;;;;7.80;99.90;;;8.11;74.29;99901.03;5533994;26;19927;-83
2024/04/17 08:31:06;;;;;;;;;;;7.90;99.90;;;8.15;74.69;99908.38;5535820;26;19934;-83
2024/04/17 08:33:35;;;;;;;;;;;8.00;99.90;;;8.18;75.24;99901.81;5533546;26;19934;-83
2024/04/17 08:36:04;;;;;;;;;;;8.00;99.90;;;8.23;75.33;99910.78;5533998;26;19953;-83
2024/04/17 08:38:32;;;;;;;;;;;8.10;99.90;;;8.19;74.87;99909.56;5533883;26;20031;-83
2024/04/17 08:40:59;;;;;;;;;;;8.10;99.90;;;8.17;74.36;99916.94;5535672;26;19928;-83
2024/04/17 08:43:28;;;;;;;;;;;8.00;99.90;;;8.19;74.30;99922.84;5535442;26;20363;-84
2024/04/17 08:45:55;;;;;;;;;;;8.00;99.90;;;8.21;74.26;99915.50;5536077;25;20410;-83
2024/04/17 08:48:25;;;;;;;;;;;8.10;99.90;;;8.23;73.90;99917.94;5533925;26;19999;-83
2024/04/17 08:50:52;;;;;;;;;;;8.00;99.90;;;8.18;73.65;99918.56;5534252;26;19927;-83
2024/04/17 08:53:25;;;;;;;;;;;8.00;99.90;;;8.18;73.10;99923.06;5535249;26;19927;-83
2024/04/17 08:55:51;;;;;;;;;;;8.00;99.90;;;8.16;73.07;99919.81;5536815;26;19934;-83
2024/04/17 08:58:21;;;;;;;;;;;8.00;99.90;;;8.22;73.75;99926.94;5537065;25;19928;-83
2024/04/17 09:00:49;;;;;;;;;;;8.00;99.90;;;8.30;73.63;99936.53;5532982;26;19934;-83
2024/04/17 09:03:22;;;;;;;;;;;8.10;99.90;;;8.26;72.83;99928.97;5536712;25;19952;-83
2024/04/17 09:05:49;;;;;;;;;;;8.10;99.90;;;8.33;73.35;99936.09;5534075;26;19934;-83
2024/04/17 09:08:18;;;;;;;;;;;8.10;99.90;;;8.39;73.27;99932.63;5532606;26;19935;-83
2024/04/17 09:10:47;;;;;;;;;;;8.20;99.90;;;8.43;72.44;99936.50;5532816;26;20028;-83
2024/04/17 09:13:17;;;;;;;;;;;8.20;99.90;;;8.48;72.81;99939.34;5533884;26;19931;-83
2024/04/17 09:15:44;;;;;;;;;;;8.30;99.90;;;8.52;72.73;99928.09;5533121;26;19934;-83
2024/04/17 09:18:13;;;;;;;;;;;8.40;99.90;;;8.58;72.89;99933.56;5532458;26;19927;-84
2024/04/17 09:20:41;;;;;;;;;;;8.40;99.90;;;8.61;72.68;99933.97;5532952;26;19931;-83
2024/04/17 09:23:13;;;;;;;;;;;8.50;99.90;;;8.69;72.57;99932.94;5535815;26;19935;-83
2024/04/17 09:25:39;;;;;;;;;;;8.50;99.90;;;8.74;71.36;99931.25;5534450;26;19928;-83
2024/04/17 09:28:12;;;;;;;;;;;8.60;99.90;;;8.74;70.36;99938.44;5534789;25;19928;-83
2024/04/17 09:30:41;;;;;;;;;;;8.60;99.90;;;8.81;71.33;99933.06;5533630;26;19935;-83
2024/04/17 09:33:11;;;;;;;;;;;8.70;99.90;;;8.87;71.33;99933.03;5532562;26;19927;-83
2024/04/17 09:35:38;;;;;;;;;;;8.80;99.90;;;8.93;71.54;99931.34;5534161;25;19928;-83
2024/04/17 09:38:13;;;;;;;;;;;8.90;99.90;;;9.00;71.90;99930.28;5532111;26;19996;-83
2024/04/17 09:40:42;;;;;;;;;;;9.00;99.90;;;9.03;70.38;99934.38;5533067;26;19934;-83
2024/04/17 09:43:17;;;;;;;;;;;9.00;99.90;;;9.11;70.53;99927.97;5532927;26;19927;-83
2024/04/17 09:45:44;;;;;;;;;;;9.00;99.90;;;9.10;70.49;99927.16;5532031;26;19935;-83
2024/04/17 09:48:13;;;;;;;;;;;9.10;99.90;;;9.14;71.37;99923.06;5531678;26;20296;-83
2024/04/17 09:50:42;;;;;;;;;;;9.20;99.90;;;9.26;71.92;99920.50;5532541;26;19927;-83
2024/04/17 09:53:11;;;;;;;;;;;9.30;99.90;;;9.36;70.74;99909.38;5534981;25;19931;-83
2024/04/17 09:55:38;;;;;;;;;;;9.40;99.90;;;9.37;69.81;99913.66;5532869;26;19934;-83
2024/04/17 09:58:11;;;;;;;;;;;9.40;99.90;;;9.44;70.55;99911.78;5534083;26;19927;-83
2024/04/17 10:00:40;;;;;;;;;;;9.50;99.90;;;9.47;70.07;99903.38;5533622;26;19927;-83
2024/04/17 10:03:11;;;;;;;;;;;9.50;99.90;;;9.44;69.74;99909.09;5533405;26;19952;-83
2024/04/17 10:05:37;;;;;;;;;;;9.50;99.90;;;9.51;70.03;99902.69;5532879;26;19934;-83
2024/04/17 10:08:07;;;;;;;;;;;9.60;99.90;;;9.57;70.38;99906.34;5534949;26;19934;-83
2024/04/17 10:10:34;;;;;;;;;;;9.70;99.90;;;9.55;68.65;99903.88;5532581;26;19932;-83
2024/04/17 10:13:03;;;;;;;;;;;9.60;99.90;;;9.61;68.36;99896.84;5535077;26;19935;-83
2024/04/17 10:15:29;;;;;;;;;;;9.70;99.90;;;9.61;67.97;99898.72;5536006;26;19935;-83
2024/04/17 10:18:01;;;;;;;;;;;9.70;99.90;;;9.54;66.81;99890.78;5535875;26;19927;-83
2024/04/17 10:20:28;;;;;;;;;;;9.70;99.90;;;9.68;67.32;99894.16;5536434;26;19927;-83
2024/04/17 10:23:08;;;;;;;;;;;9.80;99.90;;;9.75;66.91;99901.03;5537160;26;19951;-83
2024/04/17 10:25:44;;;;;;;;;;;9.80;99.90;;;9.77;66.28;99892.84;5536776;26;19934;-83
2024/04/17 10:28:14;;;;;;;;;;;9.90;99.90;;;9.79;66.47;99888.09;5538825;25;19959;-83
2024/04/17 10:30:42;;;;;;;;;;;9.80;99.90;;;9.79;65.14;99882.78;5537143;26;19928;-83
2024/04/17 10:33:31;;;;;;;;;;;9.80;99.90;;;9.85;65.88;99883.72;5536914;26;19927;-83
2024/04/17 10:36:00;;;;;;;;;;;9.90;99.90;;;9.84;65.75;99884.78;5536009;26;20063;-83
2024/04/17 10:38:30;;;;;;;;;;;9.90;99.90;;;9.83;64.84;99888.47;5535528;26;19927;-83
2024/04/17 10:40:57;;;;;;;;;;;9.90;99.90;;;9.89;64.99;99887.59;5536317;26;19943;-83
2024/04/17 10:43:26;;;;;;;;;;;9.90;99.90;;;9.89;65.73;99884.94;5535016;26;19931;-83
2024/04/17 10:45:56;;;;;;;;;;;10.00;99.90;;;9.89;65.31;99892.91;5535414;26;20260;-83
2024/04/17 10:48:24;;;;;;;;;;;10.00;99.90;;;9.76;65.18;99893.84;5535538;26;19940;-83
2024/04/17 10:50:54;;;;;;;;;;;9.80;99.90;;;9.61;65.63;99898.72;5535616;26;19935;-83
2024/04/17 10:53:23;;;;;;;;;;;9.60;99.90;;;9.54;67.79;99898.78;5535549;26;19935;-83
2024/04/17 10:55:50;;;;;;;;;;;9.60;99.90;;;9.45;68.63;99910.72;5537276;26;20275;-83
2024/04/17 10:58:20;;;;;;;;;;;9.40;99.90;;;9.39;68.69;99903.63;5537888;26;20371;-83
2024/04/17 11:00:47;;;;;;;;;;;9.30;99.90;;;9.36;68.81;99902.19;5535191;26;19936;-83
2024/04/17 11:03:16;;;;;;;;;;;9.20;99.90;;;9.37;68.90;99903.84;5536558;26;19934;-83
2024/04/17 11:05:42;;;;;;;;;;;9.30;99.90;;;9.39;68.83;99890.31;5536140;26;19938;-83
2024/04/17 11:08:14;;;;;;;;;;;9.30;99.90;;;9.38;68.29;99886.03;5536872;26;19939;-83
2024/04/17 11:10:40;;;;;;;;;;;9.30;99.90;;;9.44;69.35;99882.50;5535181;26;19928;-83
2024/04/17 11:13:17;;;;;;;;;;;9.30;99.90;;;9.45;69.59;99884.13;5534842;26;19931;-83
2024/04/17 11:15:43;;;;;;;;;;;9.40;99.90;;;9.47;68.95;99885.53;5535659;26;20378;-83
2024/04/17 11:18:13;;;;;;;;;;;9.40;99.90;;;9.53;69.60;99876.69;5537872;26;19927;-83
2024/04/17 11:20:39;;;;;;;;;;;9.50;99.90;;;9.58;69.88;99885.84;5533975;26;19927;-83
2024/04/17 11:23:08;;;;;;;;;;;9.50;99.90;;;9.67;69.30;99873.91;5535252;25;20455;-83
2024/04/17 11:25:40;;;;;;;;;;;9.70;99.90;;;9.67;68.93;99865.91;5534913;26;19927;-83
2024/04/17 11:28:13;;;;;;;;;;;9.70;99.90;;;9.71;68.25;99859.09;5534522;26;19935;-83
2024/04/17 11:30:45;;;;;;;;;;;9.70;99.90;;;9.77;68.14;99856.38;5535485;26;19935;-83
2024/04/17 11:33:14;;;;;;;;;;;9.80;99.90;;;9.79;66.81;99859.63;5536305;26;19927;-83
2024/04/17 11:35:41;;;;;;;;;;;9.80;99.90;;;9.85;66.11;99857.91;5535415;26;19935;-82
2024/04/17 11:38:11;;;;;;;;;;;9.90;99.90;;;9.88;65.30;99862.81;5533060;26;20389;-82
2024/04/17 11:40:42;;;;;;;;;;;9.90;99.90;;;9.85;64.48;99854.44;5527432;25;19934;-84